Grandview, Texas
Current Conditions -  °F | °C
As of 1:55 AM on Tuesday 21 Oct 2014 (Local Time) from KINJ Reporting Station
Clear Clear  
Wind Chill: 63°   Ceiling: Unl
Heat Index: 63°   Visibility: 10mi
Dew Point: 56°   Wind: 0mph
Humidity: 78%   Direction: NA
Pressure: 30.05"   Gusts: NA
Location:  32.27°N, 97.18°W
Report Text: KINJ 210655Z AUTO 00000KT 10SM CLR 17/13 A3005 RMK AO2 T01710133
Loading
Personal Weather Stations






























Interactive Weather Map
Tropical Storm Tracking
New forecast layout! Learn more

10-Day Weather Forecast

Advertisements
Track Severe Weather on mobile